This is the latest recevied weather packets stored in our database for station/object SV3CQY. If no packets are shown the sender has not sent any weather packets the latest 10 day(s).
| Time | Temp. | Humidity | Pressure | Rain* | Wind** | Luminosity | Snow |
|---|---|---|---|---|---|---|---|
| 1778034912 | 15° C | 65% | 1015.4 hPa | 0 mm | - | - | - |
| 1778033728 | 15.56° C | 66% | 1015.4 hPa | 0 mm | - | - | - |
| 1778033112 | 15.56° C | 66% | 1015.5 hPa | 0 mm | - | - | - |
| 1778031932 | 16.11° C | 75% | 1015.5 hPa | 0 mm | - | - | - |
| 1778031613 | 16.67° C | 73% | 1015.6 hPa | 0 mm | - | - | - |
| 1778029227 | 16.67° C | 73% | 1015.7 hPa | 0 mm | - | - | - |
| 1778026527 | 16.67° C | 75% | 1016 hPa | 0 mm | - | - | - |
| 1778025911 | 17.22° C | 69% | 1016.1 hPa | 0 mm | - | - | - |
| 1778021130 | 15.56° C | 64% | 1016.7 hPa | 0 mm | - | - | - |
| 1778020811 | 16.11° C | 61% | 1016.7 hPa | 0 mm | - | - | - |
| 1778019910 | 16.11° C | 60% | 1016.7 hPa | 0 mm | - | - | - |
| 1778018712 | 15.56° C | 61% | 1016.8 hPa | 0 mm | - | - | - |
| 1778018437 | 16.11° C | 60% | 1016.8 hPa | 0 mm | - | - | - |
| 1778017813 | 16.11° C | 60% | 1016.8 hPa | 0 mm | - | - | - |
| 1778016909 | 16.67° C | 63% | 1016.6 hPa | 0 mm | - | - | - |
| 1778016626 | 16.67° C | 60% | 1016.6 hPa | 0 mm | - | - | - |
| 1778014212 | 16.11° C | 55% | 1016.6 hPa | 0 mm | - | - | - |
| 1778013311 | 17.22° C | 51% | 1016.5 hPa | 0 mm | - | - | - |
| 1778012130 | 17.22° C | 54% | 1016.6 hPa | 0 mm | - | - | - |
| 1778011809 | 16.67° C | 54% | 1016.7 hPa | 0 mm | - | - | - |
| 1778010328 | 18.33° C | 53% | 1016.5 hPa | 0 mm | - | - | - |
| 1778008527 | 18.33° C | 56% | 1016.2 hPa | 0 mm | - | - | - |
| 1778004612 | 19.44° C | 56% | 1015.1 hPa | 0 mm | - | - | - |
| 1778004312 | 19.44° C | 56% | 1015.2 hPa | 0 mm | - | - | - |
| 1778003408 | 20° C | 49% | 1015.1 hPa | 0 mm | - | - | - |
* Rain latest hour (hover to see other rain measurements)
** Current wind speed in m/s (hover to see current wind gust speed)